sensor_id;sensor_type;location;lat;lon;timestamp;pressure;altitude;pressure_sealevel;temperature;humidity
43691;BME280;29293;52.190;21.226;2024-02-26T00:07:17;99507.52;;;4.07;100.00
43691;BME280;29293;52.190;21.226;2024-02-26T00:22:24;99509.42;;;4.02;100.00
43691;BME280;29293;52.190;21.226;2024-02-26T00:37:31;99491.87;;;4.02;100.00
43691;BME280;29293;52.190;21.226;2024-02-26T00:52:38;99485.35;;;4.01;100.00
43691;BME280;29293;52.190;21.226;2024-02-26T01:07:45;99474.50;;;3.96;100.00
43691;BME280;29293;52.190;21.226;2024-02-26T01:22:52;99472.50;;;3.78;100.00
43691;BME280;29293;52.190;21.226;2024-02-26T01:37:59;99470.15;;;3.62;100.00
43691;BME280;29293;52.190;21.226;2024-02-26T01:53:06;99475.16;;;3.39;100.00
43691;BME280;29293;52.190;21.226;2024-02-26T02:08:14;99478.96;;;3.20;100.00
43691;BME280;29293;52.190;21.226;2024-02-26T02:23:22;99480.55;;;2.95;100.00
43691;BME280;29293;52.190;21.226;2024-02-26T02:38:28;99481.02;;;2.72;100.00
43691;BME280;29293;52.190;21.226;2024-02-26T02:53:35;99487.04;;;2.50;100.00
43691;BME280;29293;52.190;21.226;2024-02-26T03:08:42;99503.69;;;2.44;100.00
43691;BME280;29293;52.190;21.226;2024-02-26T03:23:50;99514.53;;;2.41;100.00
43691;BME280;29293;52.190;21.226;2024-02-26T03:38:57;99519.56;;;2.19;100.00
43691;BME280;29293;52.190;21.226;2024-02-26T03:54:04;99516.98;;;2.05;100.00
43691;BME280;29293;52.190;21.226;2024-02-26T04:09:12;99511.42;;;1.97;100.00
43691;BME280;29293;52.190;21.226;2024-02-26T04:24:19;99511.70;;;1.98;100.00
43691;BME280;29293;52.190;21.226;2024-02-26T04:39:26;99511.23;;;2.03;100.00
43691;BME280;29293;52.190;21.226;2024-02-26T04:54:33;99505.91;;;2.13;100.00
43691;BME280;29293;52.190;21.226;2024-02-26T05:09:41;99510.88;;;2.22;100.00
43691;BME280;29293;52.190;21.226;2024-02-26T05:24:49;99511.21;;;2.21;100.00
43691;BME280;29293;52.190;21.226;2024-02-26T05:39:57;99515.92;;;2.33;100.00
43691;BME280;29293;52.190;21.226;2024-02-26T05:55:05;99527.14;;;2.58;100.00
43691;BME280;29293;52.190;21.226;2024-02-26T06:10:13;99540.57;;;2.88;100.00
43691;BME280;29293;52.190;21.226;2024-02-26T06:25:21;99553.33;;;3.22;100.00
43691;BME280;29293;52.190;21.226;2024-02-26T06:40:28;99557.22;;;3.48;100.00
43691;BME280;29293;52.190;21.226;2024-02-26T06:55:35;99561.84;;;3.88;100.00
43691;BME280;29293;52.190;21.226;2024-02-26T07:10:43;99569.84;;;4.28;100.00
43691;BME280;29293;52.190;21.226;2024-02-26T07:25:50;99579.08;;;4.48;100.00
43691;BME280;29293;52.190;21.226;2024-02-26T07:40:58;99585.04;;;4.91;100.00
43691;BME280;29293;52.190;21.226;2024-02-26T07:56:05;99590.04;;;5.69;100.00
43691;BME280;29293;52.190;21.226;2024-02-26T08:11:15;99593.60;;;6.53;100.00
43691;BME280;29293;52.190;21.226;2024-02-26T08:26:23;99602.89;;;7.40;100.00
43691;BME280;29293;52.190;21.226;2024-02-26T08:41:30;99609.80;;;8.48;100.00
43691;BME280;29293;52.190;21.226;2024-02-26T08:56:37;99615.20;;;9.24;100.00
43691;BME280;29293;52.190;21.226;2024-02-26T09:11:44;99629.79;;;9.42;100.00
43691;BME280;29293;52.190;21.226;2024-02-26T09:26:51;99635.84;;;9.49;100.00
43691;BME280;29293;52.190;21.226;2024-02-26T09:41:59;99647.81;;;9.42;100.00
43691;BME280;29293;52.190;21.226;2024-02-26T09:57:10;99651.20;;;9.32;100.00
43691;BME280;29293;52.190;21.226;2024-02-26T10:12:21;99665.78;;;9.37;100.00
43691;BME280;29293;52.190;21.226;2024-02-26T10:27:29;99662.21;;;9.57;100.00
43691;BME280;29293;52.190;21.226;2024-02-26T10:42:36;99649.80;;;10.24;100.00
43691;BME280;29293;52.190;21.226;2024-02-26T10:57:46;99655.13;;;10.74;100.00
43691;BME280;29293;52.190;21.226;2024-02-26T11:12:55;99642.83;;;11.26;100.00
43691;BME280;29293;52.190;21.226;2024-02-26T11:28:06;99632.63;;;11.78;100.00
43691;BME280;29293;52.190;21.226;2024-02-26T11:43:15;99637.83;;;12.02;100.00
43691;BME280;29293;52.190;21.226;2024-02-26T11:58:22;99631.21;;;12.55;100.00
43691;BME280;29293;52.190;21.226;2024-02-26T12:13:31;99623.47;;;13.40;100.00
43691;BME280;29293;52.190;21.226;2024-02-26T12:28:42;99620.32;;;13.80;100.00
43691;BME280;29293;52.190;21.226;2024-02-26T12:43:49;99631.96;;;13.70;100.00
43691;BME280;29293;52.190;21.226;2024-02-26T12:58:56;99634.65;;;13.39;100.00
43691;BME280;29293;52.190;21.226;2024-02-26T13:14:03;99628.88;;;13.36;100.00
43691;BME280;29293;52.190;21.226;2024-02-26T13:29:18;99624.14;;;13.51;100.00
43691;BME280;29293;52.190;21.226;2024-02-26T13:44:25;99634.88;;;13.16;100.00
43691;BME280;29293;52.190;21.226;2024-02-26T13:59:32;99641.80;;;12.87;100.00
43691;BME280;29293;52.190;21.226;2024-02-26T14:14:39;99635.71;;;12.97;100.00
43691;BME280;29293;52.190;21.226;2024-02-26T14:29:48;99623.65;;;13.07;100.00
43691;BME280;29293;52.190;21.226;2024-02-26T14:44:55;99632.19;;;12.92;100.00
43691;BME280;29293;52.190;21.226;2024-02-26T15:00:02;99635.23;;;12.66;100.00
43691;BME280;29293;52.190;21.226;2024-02-26T15:15:11;99642.70;;;12.28;100.00
43691;BME280;29293;52.190;21.226;2024-02-26T15:30:21;99655.40;;;12.05;100.00
43691;BME280;29293;52.190;21.226;2024-02-26T15:45:28;99657.52;;;11.77;100.00
43691;BME280;29293;52.190;21.226;2024-02-26T16:00:41;99672.52;;;11.40;100.00
43691;BME280;29293;52.190;21.226;2024-02-26T16:15:51;99671.93;;;10.91;100.00
43691;BME280;29293;52.190;21.226;2024-02-26T16:31:02;99683.25;;;10.59;100.00
43691;BME280;29293;52.190;21.226;2024-02-26T16:46:09;99704.35;;;10.54;100.00
43691;BME280;29293;52.190;21.226;2024-02-26T17:01:17;99705.05;;;10.47;100.00
43691;BME280;29293;52.190;21.226;2024-02-26T17:16:24;99714.19;;;10.48;100.00
43691;BME280;29293;52.190;21.226;2024-02-26T17:31:31;99719.98;;;10.46;100.00
43691;BME280;29293;52.190;21.226;2024-02-26T17:46:40;99723.20;;;10.36;100.00
43691;BME280;29293;52.190;21.226;2024-02-26T18:01:52;99723.25;;;10.20;100.00
43691;BME280;29293;52.190;21.226;2024-02-26T18:17:02;99725.95;;;10.08;100.00
43691;BME280;29293;52.190;21.226;2024-02-26T18:32:09;99728.02;;;9.97;100.00
43691;BME280;29293;52.190;21.226;2024-02-26T18:47:16;99738.45;;;9.92;100.00
43691;BME280;29293;52.190;21.226;2024-02-26T19:02:25;99733.56;;;9.83;100.00
43691;BME280;29293;52.190;21.226;2024-02-26T19:17:35;99739.35;;;9.75;100.00
43691;BME280;29293;52.190;21.226;2024-02-26T19:32:42;99744.77;;;9.66;100.00
43691;BME280;29293;52.190;21.226;2024-02-26T19:47:49;99750.73;;;9.59;100.00
43691;BME280;29293;52.190;21.226;2024-02-26T20:02:56;99750.27;;;9.55;100.00
43691;BME280;29293;52.190;21.226;2024-02-26T20:18:05;99746.94;;;9.42;100.00
43691;BME280;29293;52.190;21.226;2024-02-26T20:33:13;99746.20;;;9.41;100.00
43691;BME280;29293;52.190;21.226;2024-02-26T20:48:20;99751.94;;;9.40;100.00
43691;BME280;29293;52.190;21.226;2024-02-26T21:03:27;99748.42;;;9.39;100.00
43691;BME280;29293;52.190;21.226;2024-02-26T21:18:35;99761.56;;;9.35;100.00
43691;BME280;29293;52.190;21.226;2024-02-26T21:33:44;99773.34;;;9.33;100.00
43691;BME280;29293;52.190;21.226;2024-02-26T21:48:51;99781.29;;;9.28;100.00
43691;BME280;29293;52.190;21.226;2024-02-26T22:03:58;99788.70;;;9.23;100.00
43691;BME280;29293;52.190;21.226;2024-02-26T22:19:05;99804.55;;;9.22;100.00
43691;BME280;29293;52.190;21.226;2024-02-26T22:34:12;99817.92;;;9.19;100.00
43691;BME280;29293;52.190;21.226;2024-02-26T22:49:19;99822.42;;;9.13;100.00
43691;BME280;29293;52.190;21.226;2024-02-26T23:04:26;99837.33;;;9.03;100.00
43691;BME280;29293;52.190;21.226;2024-02-26T23:19:33;99841.67;;;8.91;100.00
43691;BME280;29293;52.190;21.226;2024-02-26T23:34:40;99841.64;;;8.68;100.00
43691;BME280;29293;52.190;21.226;2024-02-26T23:49:46;99845.16;;;8.42;100.00
